Time;durP1;ratioP1;P1;durP2;ratioP2;P2;SDS_P1;SDS_P2;PMS_P1;PMS_P2;Temp;Humidity;BMP_temperature;BMP_pressure;BME280_temperature;BME280_humidity;BME280_pressure;Samples;Min_cycle;Max_cycle;Signal;HPM_P1;HPM_P2
2022/01/13 00:01:47;;;;;;;82.93;36.83;;;;;;;;;;783522;176;920636;-68
2022/01/13 00:04:13;;;;;;;65.73;33.87;;;;;;;;;;790282;177;918538;-67
2022/01/13 00:06:39;;;;;;;76.47;34.50;;;;;;;;;;790573;176;920656;-67
2022/01/13 00:09:05;;;;;;;72.77;34.90;;;;;;;;;;774471;176;918819;-67
2022/01/13 00:11:30;;;;;;;69.63;34.67;;;;;;;;;;767078;180;1012729;-67
2022/01/13 00:19:18;;;;;;;72.10;35.50;;;;;;;;;;779962;176;918041;-67
2022/01/13 00:21:35;;;;;;;88.00;37.30;;;;;;;;;;775359;177;918940;-67
2022/01/13 00:23:59;;;;;;;78.83;36.00;;;;;;;;;;792627;177;917794;-67
2022/01/13 00:26:24;;;;;;;70.47;33.37;;;;;;;;;;790989;176;917181;-67
2022/01/13 00:28:49;;;;;;;74.60;37.70;;;;;;;;;;783373;176;917419;-68
2022/01/13 00:31:16;;;;;;;78.80;35.67;;;;;;;;;;787610;177;919110;-66
2022/01/13 00:33:44;;;;;;;72.97;35.97;;;;;;;;;;777688;178;918364;-67
2022/01/13 00:36:05;;;;;;;81.80;35.87;;;;;;;;;;780779;176;1021207;-67
2022/01/13 00:38:31;;;;;;;70.17;34.33;;;;;;;;;;785705;176;918416;-67
2022/01/13 00:40:57;;;;;;;83.40;34.40;;;;;;;;;;780924;177;918647;-67
2022/01/13 00:43:23;;;;;;;88.70;37.27;;;;;;;;;;781624;176;919559;-67
2022/01/13 00:45:49;;;;;;;75.40;37.60;;;;;;;;;;781604;177;919566;-66
2022/01/13 00:48:14;;;;;;;63.20;31.80;;;;;;;;;;792848;175;919084;-67
2022/01/13 00:50:40;;;;;;;83.63;35.77;;;;;;;;;;791076;175;919380;-66
2022/01/13 00:53:06;;;;;;;81.47;41.20;;;;;;;;;;786322;176;919496;-67
2022/01/13 00:55:45;;;;;;;82.27;37.20;;;;;;;;;;784574;178;944804;-66
2022/01/13 00:57:58;;;;;;;82.40;36.07;;;;;;;;;;769814;180;918695;-66
2022/01/13 01:00:25;;;;;;;77.47;35.17;;;;;;;;;;782141;176;918825;-67
2022/01/13 01:02:51;;;;;;;84.47;37.37;;;;;;;;;;778660;176;918308;-67
2022/01/13 01:05:17;;;;;;;73.07;34.80;;;;;;;;;;782128;177;919389;-67
2022/01/13 01:07:43;;;;;;;78.87;32.90;;;;;;;;;;781655;176;918887;-66
2022/01/13 01:10:09;;;;;;;76.15;32.90;;;;;;;;;;780659;177;918464;-66
2022/01/13 01:12:37;;;;;;;85.63;36.43;;;;;;;;;;776716;178;918176;-66
2022/01/13 01:15:00;;;;;;;80.77;34.27;;;;;;;;;;780540;176;919353;-67
2022/01/13 01:17:27;;;;;;;79.83;32.10;;;;;;;;;;782492;176;918172;-66
2022/01/13 01:19:52;;;;;;;79.60;35.17;;;;;;;;;;785579;176;919261;-67
2022/01/13 01:27:25;;;;;;;81.23;35.93;;;;;;;;;;783224;177;919062;-67
2022/01/13 01:32:19;;;;;;;67.80;32.87;;;;;;;;;;774817;177;1737678;-67
2022/01/13 01:34:55;;;;;;;88.93;33.30;;;;;;;;;;777758;178;918249;-66
2022/01/13 01:37:23;;;;;;;75.37;33.77;;;;;;;;;;777652;177;980216;-66
2022/01/13 01:39:47;;;;;;;66.60;32.73;;;;;;;;;;792252;175;918645;-66
2022/01/13 01:42:12;;;;;;;72.53;34.40;;;;;;;;;;786808;175;966635;-66
2022/01/13 01:44:43;;;;;;;82.00;33.73;;;;;;;;;;778777;177;918932;-66
2022/01/13 01:47:05;;;;;;;71.35;31.55;;;;;;;;;;789604;176;924256;-65
2022/01/13 01:49:38;;;;;;;74.70;36.03;;;;;;;;;;788144;177;919050;-66
2022/01/13 01:51:57;;;;;;;78.17;36.37;;;;;;;;;;778856;177;919632;-66
2022/01/13 01:54:23;;;;;;;67.30;33.60;;;;;;;;;;776216;180;918813;-66
2022/01/13 01:56:49;;;;;;;78.50;34.10;;;;;;;;;;784686;178;919234;-66
2022/01/13 01:59:16;;;;;;;75.57;37.57;;;;;;;;;;776318;178;919477;-66
2022/01/13 02:01:40;;;;;;;92.28;38.67;;;;;;;;;;778451;177;922276;-66
2022/01/13 02:04:06;;;;;;;88.23;38.07;;;;;;;;;;786392;178;918895;-66
2022/01/13 02:06:32;;;;;;;83.87;36.47;;;;;;;;;;787332;177;918618;-66
2022/01/13 02:08:58;;;;;;;82.43;37.93;;;;;;;;;;784358;177;976117;-65
2022/01/13 02:11:24;;;;;;;83.47;39.60;;;;;;;;;;782865;177;1123217;-66
2022/01/13 02:13:53;;;;;;;77.20;36.80;;;;;;;;;;781595;177;938138;-66
2022/01/13 02:18:47;;;;;;;80.95;40.25;;;;;;;;;;778577;180;918537;-66
2022/01/13 02:21:13;;;;;;;72.90;36.40;;;;;;;;;;784719;177;914630;-66
2022/01/13 02:23:39;;;;;;;77.20;37.28;;;;;;;;;;779699;179;915711;-66
2022/01/13 02:26:05;;;;;;;82.83;40.63;;;;;;;;;;781926;177;916107;-66
2022/01/13 02:28:30;;;;;;;84.60;37.30;;;;;;;;;;785647;177;916353;-67
2022/01/13 02:30:56;;;;;;;65.57;35.38;;;;;;;;;;780343;176;916034;-66
2022/01/13 02:33:22;;;;;;;83.10;39.77;;;;;;;;;;782639;176;919110;-67
2022/01/13 02:35:48;;;;;;;70.27;32.90;;;;;;;;;;779811;176;918188;-66
2022/01/13 02:38:14;;;;;;;92.50;37.70;;;;;;;;;;785703;177;918295;-66
2022/01/13 02:40:40;;;;;;;75.90;36.77;;;;;;;;;;780567;177;920464;-67
2022/01/13 02:43:06;;;;;;;83.83;37.40;;;;;;;;;;780971;177;918946;-67
2022/01/13 02:45:37;;;;;;;69.43;32.30;;;;;;;;;;784509;178;917339;-66
2022/01/13 02:48:13;;;;;;;75.57;34.83;;;;;;;;;;784416;177;1105816;-67
2022/01/13 02:50:25;;;;;;;76.53;35.90;;;;;;;;;;787908;176;918516;-67
2022/01/13 02:52:51;;;;;;;85.20;35.27;;;;;;;;;;786304;177;918974;-67
2022/01/13 02:55:17;;;;;;;74.20;35.70;;;;;;;;;;781771;176;914893;-66
2022/01/13 02:57:43;;;;;;;76.53;36.33;;;;;;;;;;779052;176;921744;-66
2022/01/13 03:00:09;;;;;;;74.97;35.63;;;;;;;;;;781449;176;919179;-65
2022/01/13 03:02:35;;;;;;;75.00;34.10;;;;;;;;;;788572;179;918238;-67
2022/01/13 03:05:01;;;;;;;75.80;39.40;;;;;;;;;;780934;178;918717;-67
2022/01/13 03:07:30;;;;;;;85.37;40.67;;;;;;;;;;777458;177;1020180;-66
2022/01/13 03:09:52;;;;;;;84.20;39.53;;;;;;;;;;785995;177;918831;-65
2022/01/13 03:12:19;;;;;;;102.30;41.70;;;;;;;;;;779573;176;919466;-66
2022/01/13 03:14:44;;;;;;;82.53;37.97;;;;;;;;;;782272;177;918870;-66
2022/01/13 03:17:10;;;;;;;93.87;38.73;;;;;;;;;;777761;181;918763;-67
2022/01/13 03:19:36;;;;;;;67.87;31.83;;;;;;;;;;767006;181;918271;-67
2022/01/13 03:22:02;;;;;;;75.43;35.10;;;;;;;;;;781163;177;919996;-66
2022/01/13 03:24:30;;;;;;;72.47;36.77;;;;;;;;;;780883;177;918756;-66
2022/01/13 03:26:55;;;;;;;77.00;33.53;;;;;;;;;;789501;176;919158;-67
2022/01/13 03:29:22;;;;;;;76.63;37.20;;;;;;;;;;775778;177;919230;-66
2022/01/13 03:31:45;;;;;;;89.93;36.08;;;;;;;;;;769899;180;919035;-66
2022/01/13 03:34:11;;;;;;;78.50;34.87;;;;;;;;;;774755;179;917549;-68
2022/01/13 03:36:37;;;;;;;71.20;32.50;;;;;;;;;;784219;177;919808;-67
2022/01/13 03:39:03;;;;;;;78.32;33.28;;;;;;;;;;784346;176;920079;-67
2022/01/13 03:41:29;;;;;;;73.67;35.20;;;;;;;;;;786057;177;919219;-66
2022/01/13 03:43:55;;;;;;;79.80;36.43;;;;;;;;;;782179;176;920105;-66
2022/01/13 03:46:20;;;;;;;86.07;37.20;;;;;;;;;;783028;176;919035;-66
2022/01/13 03:48:47;;;;;;;82.40;35.65;;;;;;;;;;783472;176;919999;-65
2022/01/13 03:51:13;;;;;;;76.93;37.07;;;;;;;;;;779231;177;919232;-66
2022/01/13 03:53:53;;;;;;;67.90;35.13;;;;;;;;;;784883;176;919083;-67
2022/01/13 03:56:25;;;;;;;68.40;32.35;;;;;;;;;;791361;175;919542;-66
2022/01/13 03:59:07;;;;;;;64.37;32.67;;;;;;;;;;783847;177;918754;-66
2022/01/13 04:01:37;;;;;;;65.83;28.80;;;;;;;;;;780297;176;1017072;-67
2022/01/13 04:04:03;;;;;;;69.33;31.17;;;;;;;;;;782740;176;916098;-67
2022/01/13 04:06:37;;;;;;;64.03;31.93;;;;;;;;;;780036;176;919116;-67
2022/01/13 04:09:04;;;;;;;69.70;33.10;;;;;;;;;;781462;176;919055;-67
2022/01/13 04:11:29;;;;;;;80.37;34.70;;;;;;;;;;778076;178;918944;-67
2022/01/13 04:13:57;;;;;;;71.13;35.27;;;;;;;;;;787004;177;918542;-67
2022/01/13 04:16:21;;;;;;;81.40;40.60;;;;;;;;;;782388;177;943441;-66
2022/01/13 04:18:46;;;;;;;87.35;34.50;;;;;;;;;;783068;177;924017;-67
2022/01/13 04:21:12;;;;;;;77.23;31.83;;;;;;;;;;773439;180;917945;-67
2022/01/13 04:23:38;;;;;;;73.23;34.50;;;;;;;;;;749351;184;920731;-67
2022/01/13 04:26:05;;;;;;;65.70;33.67;;;;;;;;;;780979;176;918905;-67
2022/01/13 04:28:31;;;;;;;86.90;35.33;;;;;;;;;;779624;176;921723;-66
2022/01/13 04:31:00;;;;;;;67.93;34.97;;;;;;;;;;785606;177;917706;-67
2022/01/13 04:33:29;;;;;;;63.20;29.47;;;;;;;;;;773876;178;918579;-67
2022/01/13 04:35:55;;;;;;;60.77;30.20;;;;;;;;;;779667;176;919805;-67
2022/01/13 04:38:21;;;;;;;66.10;28.73;;;;;;;;;;774999;178;919536;-66
2022/01/13 04:40:54;;;;;;;61.53;29.07;;;;;;;;;;776474;177;918630;-66
2022/01/13 04:43:13;;;;;;;72.47;32.57;;;;;;;;;;762837;180;933920;-66
2022/01/13 04:45:39;;;;;;;70.00;30.07;;;;;;;;;;759004;184;919743;-67
2022/01/13 04:48:05;;;;;;;52.43;25.40;;;;;;;;;;783667;176;921077;-67
2022/01/13 04:50:31;;;;;;;54.90;25.15;;;;;;;;;;786555;176;920356;-67
2022/01/13 04:52:57;;;;;;;69.30;28.77;;;;;;;;;;779335;176;935754;-68
2022/01/13 04:55:25;;;;;;;59.83;28.47;;;;;;;;;;784275;176;918241;-67
2022/01/13 04:57:49;;;;;;;55.33;30.00;;;;;;;;;;784266;176;919359;-67
2022/01/13 05:00:15;;;;;;;58.67;27.25;;;;;;;;;;775981;179;918865;-67
2022/01/13 05:02:41;;;;;;;63.97;27.90;;;;;;;;;;785254;177;921443;-66
2022/01/13 05:05:07;;;;;;;58.20;30.10;;;;;;;;;;778925;177;918921;-67
2022/01/13 05:07:33;;;;;;;47.50;20.67;;;;;;;;;;778936;176;1020811;-68
2022/01/13 05:09:59;;;;;;;62.57;30.07;;;;;;;;;;779799;176;919452;-66
2022/01/13 05:12:30;;;;;;;52.53;26.10;;;;;;;;;;774359;179;919565;-67
2022/01/13 05:14:55;;;;;;;53.40;23.87;;;;;;;;;;755481;180;919340;-67
2022/01/13 05:17:45;;;;;;;70.40;26.70;;;;;;;;;;774463;176;935194;-67
2022/01/13 05:19:57;;;;;;;49.60;22.03;;;;;;;;;;783296;176;918946;-66
2022/01/13 05:24:45;;;;;;;57.00;24.77;;;;;;;;;;778511;177;917649;-67
2022/01/13 05:27:09;;;;;;;60.00;27.30;;;;;;;;;;778494;177;920005;-66
2022/01/13 05:29:35;;;;;;;56.65;24.70;;;;;;;;;;783093;177;918756;-67
2022/01/13 05:32:01;;;;;;;62.07;26.43;;;;;;;;;;778417;176;919690;-66
2022/01/13 05:34:28;;;;;;;52.83;24.20;;;;;;;;;;781245;177;921484;-67
2022/01/13 05:36:53;;;;;;;58.87;25.07;;;;;;;;;;789500;177;626528;-66
2022/01/13 05:39:18;;;;;;;45.27;21.57;;;;;;;;;;784009;177;1022393;-67
2022/01/13 05:41:45;;;;;;;63.77;27.87;;;;;;;;;;776228;180;849615;-66
2022/01/13 05:44:10;;;;;;;60.77;28.20;;;;;;;;;;772572;179;627112;-66
2022/01/13 05:46:36;;;;;;;47.97;24.17;;;;;;;;;;761625;182;642870;-67
2022/01/13 05:49:02;;;;;;;54.93;26.53;;;;;;;;;;750680;183;912040;-66
2022/01/13 05:51:28;;;;;;;61.05;29.17;;;;;;;;;;788152;173;916168;-66
2022/01/13 05:53:54;;;;;;;53.13;19.87;;;;;;;;;;789460;177;914684;-67
2022/01/13 05:56:19;;;;;;;57.70;29.70;;;;;;;;;;779638;177;915685;-67
2022/01/13 05:58:45;;;;;;;57.13;28.70;;;;;;;;;;779014;176;919171;-66
2022/01/13 06:01:11;;;;;;;59.60;25.40;;;;;;;;;;786079;177;902947;-66
2022/01/13 06:03:37;;;;;;;57.60;28.20;;;;;;;;;;780397;176;919081;-66
2022/01/13 06:06:03;;;;;;;58.78;24.98;;;;;;;;;;788365;176;922644;-66
2022/01/13 06:08:29;;;;;;;57.47;28.37;;;;;;;;;;793460;176;918212;-66
2022/01/13 06:10:55;;;;;;;59.73;27.73;;;;;;;;;;779500;177;918635;-66
2022/01/13 06:13:21;;;;;;;50.33;24.10;;;;;;;;;;772847;176;1839882;-68
2022/01/13 06:15:46;;;;;;;57.27;27.37;;;;;;;;;;780117;176;920816;-66
2022/01/13 06:18:12;;;;;;;55.37;27.13;;;;;;;;;;784908;176;921783;-66
2022/01/13 06:20:39;;;;;;;64.37;29.90;;;;;;;;;;779515;176;920390;-66
2022/01/13 06:23:05;;;;;;;55.43;26.27;;;;;;;;;;780925;176;919912;-68
2022/01/13 06:25:30;;;;;;;55.33;24.80;;;;;;;;;;784103;176;1018740;-66
2022/01/13 06:27:56;;;;;;;59.43;27.17;;;;;;;;;;779801;176;921907;-66
2022/01/13 06:30:21;;;;;;;53.93;26.67;;;;;;;;;;780221;176;918900;-67
2022/01/13 06:32:47;;;;;;;65.13;30.03;;;;;;;;;;784692;177;914233;-69
2022/01/13 06:35:13;;;;;;;56.50;27.40;;;;;;;;;;785184;176;918626;-66
2022/01/13 06:37:41;;;;;;;55.00;29.67;;;;;;;;;;766972;180;918987;-66
2022/01/13 06:40:06;;;;;;;69.75;30.88;;;;;;;;;;779090;179;917933;-67
2022/01/13 06:42:31;;;;;;;58.80;28.62;;;;;;;;;;771464;180;877040;-66
2022/01/13 06:44:57;;;;;;;54.40;29.37;;;;;;;;;;763726;180;1020696;-68
2022/01/13 06:47:23;;;;;;;58.67;25.73;;;;;;;;;;765788;180;918768;-67
2022/01/13 06:49:49;;;;;;;65.00;28.23;;;;;;;;;;787626;177;918584;-66
2022/01/13 06:52:16;;;;;;;30.70;13.77;;;;;;;;;;782752;176;1008649;-67
2022/01/13 06:54:40;;;;;;;53.07;29.00;;;;;;;;;;777155;177;633160;-66
2022/01/13 06:57:06;;;;;;;56.30;29.07;;;;;;;;;;796147;176;633236;-66
2022/01/13 06:59:32;;;;;;;40.90;21.07;;;;;;;;;;784771;176;639576;-66
2022/01/13 07:02:00;;;;;;;66.17;29.87;;;;;;;;;;785025;177;622900;-66
2022/01/13 07:04:24;;;;;;;67.50;29.85;;;;;;;;;;780606;176;918981;-67
2022/01/13 07:06:50;;;;;;;66.23;24.70;;;;;;;;;;786232;176;917975;-65
2022/01/13 07:09:17;;;;;;;57.77;22.00;;;;;;;;;;786622;177;918956;-67
2022/01/13 07:11:42;;;;;;;71.40;31.33;;;;;;;;;;789378;175;920167;-66
2022/01/13 07:14:08;;;;;;;56.30;23.63;;;;;;;;;;787806;176;916919;-65
2022/01/13 07:16:33;;;;;;;52.35;25.55;;;;;;;;;;780969;176;918643;-66
2022/01/13 07:18:59;;;;;;;51.00;23.93;;;;;;;;;;779661;176;921238;-66
2022/01/13 07:21:27;;;;;;;66.67;29.80;;;;;;;;;;780292;178;924592;-66
2022/01/13 07:23:51;;;;;;;56.93;28.40;;;;;;;;;;783056;176;920484;-66
2022/01/13 07:26:17;;;;;;;49.27;26.00;;;;;;;;;;782208;177;919468;-65
2022/01/13 07:28:43;;;;;;;38.28;19.83;;;;;;;;;;785092;177;920233;-67
2022/01/13 07:31:08;;;;;;;79.10;30.77;;;;;;;;;;779973;176;919235;-67
2022/01/13 07:33:34;;;;;;;52.83;21.87;;;;;;;;;;778075;177;914905;-66
2022/01/13 07:36:00;;;;;;;27.30;15.67;;;;;;;;;;780425;177;913413;-65
2022/01/13 07:38:26;;;;;;;43.70;19.27;;;;;;;;;;786572;176;912836;-66
2022/01/13 07:40:52;;;;;;;41.80;19.37;;;;;;;;;;781716;176;919187;-66
2022/01/13 07:43:22;;;;;;;41.93;19.77;;;;;;;;;;778579;176;918463;-65
2022/01/13 07:45:44;;;;;;;46.37;20.73;;;;;;;;;;782208;178;919236;-66
2022/01/13 07:48:09;;;;;;;52.27;24.50;;;;;;;;;;778304;177;918130;-65
2022/01/13 07:50:35;;;;;;;42.20;18.70;;;;;;;;;;771538;180;919188;-65
2022/01/13 07:53:01;;;;;;;56.77;23.20;;;;;;;;;;788718;177;918604;-65
2022/01/13 07:55:27;;;;;;;50.03;24.30;;;;;;;;;;777653;176;918856;-65
2022/01/13 07:57:53;;;;;;;54.60;26.20;;;;;;;;;;779114;176;918383;-66
2022/01/13 08:00:19;;;;;;;44.57;25.40;;;;;;;;;;778744;177;919442;-65
2022/01/13 08:02:44;;;;;;;59.87;27.10;;;;;;;;;;770693;177;918712;-65
2022/01/13 08:05:10;;;;;;;58.13;30.80;;;;;;;;;;782770;176;968126;-65
2022/01/13 08:07:36;;;;;;;51.07;22.57;;;;;;;;;;779506;177;918921;-65
2022/01/13 08:10:02;;;;;;;57.80;29.23;;;;;;;;;;785430;176;919270;-65
2022/01/13 08:12:28;;;;;;;64.03;32.43;;;;;;;;;;780519;176;924379;-65
2022/01/13 08:14:54;;;;;;;61.13;26.07;;;;;;;;;;778470;176;918004;-65
2022/01/13 08:19:52;;;;;;;55.47;28.07;;;;;;;;;;787015;176;921125;-64
2022/01/13 08:22:17;;;;;;;58.33;26.87;;;;;;;;;;781978;176;927060;-64
2022/01/13 08:24:43;;;;;;;34.03;18.27;;;;;;;;;;780576;178;919528;-64
2022/01/13 08:27:09;;;;;;;62.13;28.53;;;;;;;;;;783170;179;919390;-64
2022/01/13 08:29:35;;;;;;;54.80;22.48;;;;;;;;;;782496;176;919760;-64
2022/01/13 08:32:01;;;;;;;46.37;23.40;;;;;;;;;;780374;176;920068;-63
2022/01/13 08:34:27;;;;;;;49.63;27.83;;;;;;;;;;785432;176;919852;-64
2022/01/13 08:36:52;;;;;;;67.90;30.07;;;;;;;;;;779194;176;918926;-64
2022/01/13 08:39:18;;;;;;;63.03;25.17;;;;;;;;;;773072;180;918486;-63
2022/01/13 08:41:45;;;;;;;57.13;26.70;;;;;;;;;;771970;180;971064;-64
2022/01/13 08:44:10;;;;;;;53.03;29.23;;;;;;;;;;768662;179;963060;-64
2022/01/13 08:46:36;;;;;;;50.43;24.40;;;;;;;;;;766024;180;929844;-64
2022/01/13 08:49:02;;;;;;;38.13;19.80;;;;;;;;;;779658;176;923886;-64
2022/01/13 08:51:28;;;;;;;55.90;23.50;;;;;;;;;;786813;176;918484;-64
2022/01/13 08:53:53;;;;;;;44.67;23.60;;;;;;;;;;777763;176;919311;-65
2022/01/13 08:56:19;;;;;;;44.03;22.87;;;;;;;;;;778432;176;920434;-65
2022/01/13 08:58:46;;;;;;;56.00;25.50;;;;;;;;;;786620;177;917582;-64
2022/01/13 09:01:11;;;;;;;48.57;25.60;;;;;;;;;;782360;177;1022111;-66
2022/01/13 09:03:37;;;;;;;65.13;29.97;;;;;;;;;;782737;176;920347;-66
2022/01/13 09:06:03;;;;;;;56.33;27.43;;;;;;;;;;757029;181;918965;-66
2022/01/13 09:08:29;;;;;;;53.23;21.27;;;;;;;;;;784928;177;919244;-66
2022/01/13 09:10:55;;;;;;;57.80;27.03;;;;;;;;;;782159;177;1023248;-66
2022/01/13 09:13:20;;;;;;;54.33;24.87;;;;;;;;;;780311;177;919515;-66
2022/01/13 09:15:50;;;;;;;50.10;23.07;;;;;;;;;;779110;180;920314;-65
2022/01/13 09:18:17;;;;;;;48.03;23.60;;;;;;;;;;789236;175;969538;-65
2022/01/13 09:20:38;;;;;;;42.40;20.67;;;;;;;;;;783795;176;919143;-64
2022/01/13 09:23:04;;;;;;;45.97;19.90;;;;;;;;;;769959;181;918916;-64
2022/01/13 09:25:29;;;;;;;42.50;20.40;;;;;;;;;;778178;176;1020773;-63
2022/01/13 09:27:55;;;;;;;46.27;21.47;;;;;;;;;;773800;179;919888;-65
2022/01/13 09:30:21;;;;;;;53.57;23.03;;;;;;;;;;785018;179;919436;-64
2022/01/13 09:32:47;;;;;;;46.27;21.63;;;;;;;;;;780365;177;918899;-63
2022/01/13 09:35:13;;;;;;;23.95;13.52;;;;;;;;;;783630;177;918290;-64
2022/01/13 09:37:39;;;;;;;35.05;17.08;;;;;;;;;;786068;176;919905;-63
2022/01/13 09:40:07;;;;;;;54.40;26.30;;;;;;;;;;780941;177;919859;-62
2022/01/13 09:42:32;;;;;;;54.40;25.90;;;;;;;;;;780592;176;918121;-62
2022/01/13 09:44:57;;;;;;;42.47;22.07;;;;;;;;;;779492;176;923843;-63
2022/01/13 09:47:23;;;;;;;41.60;21.87;;;;;;;;;;787627;176;919800;-63
2022/01/13 09:49:49;;;;;;;60.00;26.97;;;;;;;;;;781333;177;912489;-63
2022/01/13 09:52:15;;;;;;;45.50;19.80;;;;;;;;;;784048;176;918730;-63
2022/01/13 09:54:41;;;;;;;49.80;22.57;;;;;;;;;;782967;177;919400;-62
2022/01/13 09:57:07;;;;;;;44.70;22.20;;;;;;;;;;787972;176;919460;-64
2022/01/13 09:59:33;;;;;;;55.17;26.87;;;;;;;;;;765633;179;930066;-63
2022/01/13 10:01:58;;;;;;;53.83;26.00;;;;;;;;;;788663;176;921255;-63
2022/01/13 10:04:24;;;;;;;63.07;26.10;;;;;;;;;;785726;176;915668;-64
2022/01/13 10:06:50;;;;;;;58.03;29.03;;;;;;;;;;784752;176;920150;-64
2022/01/13 10:09:16;;;;;;;58.53;29.17;;;;;;;;;;786529;176;919014;-64
2022/01/13 10:11:45;;;;;;;58.60;27.43;;;;;;;;;;761319;180;913586;-64
2022/01/13 10:16:22;;;;;;;56.03;28.00;;;;;;;;;;779061;177;916013;-63
2022/01/13 10:16:41;;;;;;;47.60;24.20;;;;;;;;;;774890;177;937633;-62
2022/01/13 10:19:07;;;;;;;51.37;26.17;;;;;;;;;;780015;177;919813;-63
2022/01/13 10:21:33;;;;;;;49.30;26.90;;;;;;;;;;776513;180;916846;-63
2022/01/13 10:24:09;;;;;;;65.33;28.87;;;;;;;;;;773959;177;918750;-64
2022/01/13 10:26:34;;;;;;;65.97;29.15;;;;;;;;;;793888;175;943145;-63
2022/01/13 10:28:59;;;;;;;52.03;28.00;;;;;;;;;;790740;177;918583;-64
2022/01/13 10:31:31;;;;;;;58.23;27.10;;;;;;;;;;783406;177;918040;-64
2022/01/13 10:33:57;;;;;;;54.53;26.50;;;;;;;;;;782710;176;934077;-65
2022/01/13 10:36:22;;;;;;;37.53;22.60;;;;;;;;;;781515;176;918937;-65
2022/01/13 10:38:49;;;;;;;58.50;27.90;;;;;;;;;;784215;177;916484;-64
2022/01/13 10:41:19;;;;;;;60.67;25.70;;;;;;;;;;765587;180;919805;-63
2022/01/13 10:43:45;;;;;;;58.27;27.83;;;;;;;;;;774067;179;919570;-64
2022/01/13 10:46:10;;;;;;;50.27;25.07;;;;;;;;;;780208;177;919630;-64
2022/01/13 10:48:37;;;;;;;57.97;29.30;;;;;;;;;;791685;177;919169;-64
2022/01/13 10:51:04;;;;;;;46.47;26.20;;;;;;;;;;776255;176;981021;-65
2022/01/13 10:53:29;;;;;;;52.08;27.15;;;;;;;;;;795926;175;919354;-65
2022/01/13 10:55:55;;;;;;;34.67;18.80;;;;;;;;;;776212;180;915977;-64
2022/01/13 10:58:22;;;;;;;55.30;26.30;;;;;;;;;;783625;176;915839;-65
2022/01/13 11:00:48;;;;;;;41.73;19.70;;;;;;;;;;781596;176;917200;-65
2022/01/13 11:03:15;;;;;;;61.87;26.20;;;;;;;;;;783945;176;920150;-65
2022/01/13 11:05:40;;;;;;;52.50;26.90;;;;;;;;;;778913;176;919546;-65
2022/01/13 11:08:06;;;;;;;56.90;29.10;;;;;;;;;;778561;176;918967;-63
2022/01/13 11:10:32;;;;;;;38.97;24.53;;;;;;;;;;790330;175;921368;-64
2022/01/13 11:13:00;;;;;;;47.97;25.80;;;;;;;;;;783336;177;1021478;-64
2022/01/13 11:15:24;;;;;;;51.90;28.03;;;;;;;;;;788164;176;919513;-65
2022/01/13 11:17:50;;;;;;;52.13;26.10;;;;;;;;;;780154;176;918643;-64
2022/01/13 11:20:17;;;;;;;58.50;26.77;;;;;;;;;;783717;177;917345;-65
2022/01/13 11:22:41;;;;;;;46.63;26.73;;;;;;;;;;790544;177;919511;-64
2022/01/13 11:25:08;;;;;;;40.43;18.80;;;;;;;;;;778912;177;919114;-65
2022/01/13 11:27:33;;;;;;;46.08;22.40;;;;;;;;;;783708;177;919552;-65
2022/01/13 11:29:59;;;;;;;30.33;16.53;;;;;;;;;;780709;177;919243;-65
2022/01/13 11:32:25;;;;;;;40.43;22.20;;;;;;;;;;781499;177;919306;-65
2022/01/13 11:34:51;;;;;;;38.72;17.15;;;;;;;;;;774321;176;918759;-63
2022/01/13 11:37:17;;;;;;;30.33;12.93;;;;;;;;;;787082;177;919163;-64
2022/01/13 11:39:43;;;;;;;48.83;24.60;;;;;;;;;;781807;176;919988;-65
2022/01/13 11:42:09;;;;;;;45.23;26.27;;;;;;;;;;788529;176;917951;-65
2022/01/13 11:44:34;;;;;;;47.87;26.20;;;;;;;;;;785052;177;919009;-64
2022/01/13 11:47:01;;;;;;;45.67;21.83;;;;;;;;;;779989;176;919530;-65
2022/01/13 11:49:42;;;;;;;33.67;19.00;;;;;;;;;;777448;177;919152;-65
2022/01/13 11:52:04;;;;;;;44.87;24.13;;;;;;;;;;780832;178;918038;-64
2022/01/13 11:54:31;;;;;;;46.87;26.30;;;;;;;;;;784053;177;918304;-64
2022/01/13 11:57:01;;;;;;;38.00;17.10;;;;;;;;;;776740;177;919681;-64
2022/01/13 11:59:27;;;;;;;47.70;24.83;;;;;;;;;;779992;174;918778;-64
2022/01/13 12:01:54;;;;;;;37.40;19.87;;;;;;;;;;785467;176;917532;-64
2022/01/13 12:04:19;;;;;;;47.97;26.03;;;;;;;;;;783829;176;916658;-65
2022/01/13 12:06:45;;;;;;;56.10;26.27;;;;;;;;;;778697;177;917470;-62
2022/01/13 12:09:17;;;;;;;48.77;23.13;;;;;;;;;;781105;177;921029;-65
2022/01/13 12:11:43;;;;;;;50.87;27.63;;;;;;;;;;762348;181;916968;-65
2022/01/13 12:14:30;;;;;;;60.42;25.23;;;;;;;;;;779133;177;915704;-64
2022/01/13 12:16:56;;;;;;;42.87;20.40;;;;;;;;;;784417;176;919251;-65
2022/01/13 12:19:27;;;;;;;45.63;23.83;;;;;;;;;;783221;176;918951;-65
2022/01/13 12:22:02;;;;;;;37.77;20.90;;;;;;;;;;780949;176;919189;-65
2022/01/13 12:24:21;;;;;;;58.90;23.47;;;;;;;;;;792884;173;929834;-65
2022/01/13 12:26:48;;;;;;;46.40;24.40;;;;;;;;;;787666;176;918182;-64
2022/01/13 12:29:12;;;;;;;40.57;21.73;;;;;;;;;;779113;176;1021048;-65
2022/01/13 12:31:44;;;;;;;34.97;14.37;;;;;;;;;;784873;177;628303;-64
2022/01/13 12:34:22;;;;;;;17.67;9.20;;;;;;;;;;778131;180;634574;-65
2022/01/13 12:36:48;;;;;;;40.27;18.60;;;;;;;;;;786858;177;633963;-65
2022/01/13 12:39:14;;;;;;;44.10;22.90;;;;;;;;;;778129;177;919131;-65
2022/01/13 12:41:46;;;;;;;51.13;23.13;;;;;;;;;;778978;177;921937;-65
2022/01/13 12:44:21;;;;;;;50.37;24.13;;;;;;;;;;785021;176;919123;-65
2022/01/13 12:46:39;;;;;;;53.57;24.83;;;;;;;;;;779142;177;919633;-65
2022/01/13 12:49:04;;;;;;;55.17;26.03;;;;;;;;;;783529;175;918787;-64
2022/01/13 12:51:30;;;;;;;41.93;20.17;;;;;;;;;;787815;175;918744;-65
2022/01/13 12:53:56;;;;;;;40.03;21.33;;;;;;;;;;788486;177;919303;-65
2022/01/13 12:56:22;;;;;;;38.77;20.77;;;;;;;;;;782546;177;919521;-64
2022/01/13 12:58:47;;;;;;;60.80;24.73;;;;;;;;;;779366;177;919025;-65
2022/01/13 13:01:13;;;;;;;36.80;20.57;;;;;;;;;;783968;176;919170;-65
2022/01/13 13:03:39;;;;;;;39.90;21.67;;;;;;;;;;782445;176;923930;-64
2022/01/13 13:06:08;;;;;;;52.67;24.13;;;;;;;;;;778048;177;919082;-64
2022/01/13 13:08:34;;;;;;;37.67;19.27;;;;;;;;;;784238;176;1018314;-65
2022/01/13 13:11:01;;;;;;;42.97;23.70;;;;;;;;;;781890;177;919337;-63
2022/01/13 13:13:27;;;;;;;35.77;19.93;;;;;;;;;;780628;176;917703;-65
2022/01/13 13:15:54;;;;;;;39.60;21.40;;;;;;;;;;771020;176;920001;-64
2022/01/13 13:18:20;;;;;;;41.47;18.53;;;;;;;;;;790385;176;919630;-65
2022/01/13 13:20:48;;;;;;;36.70;18.90;;;;;;;;;;780922;176;1020057;-65
2022/01/13 13:23:11;;;;;;;47.20;24.10;;;;;;;;;;782260;177;918726;-65
2022/01/13 13:25:39;;;;;;;38.20;17.37;;;;;;;;;;786328;177;919900;-63
2022/01/13 13:28:11;;;;;;;45.00;23.07;;;;;;;;;;779183;177;924114;-65
2022/01/13 13:30:43;;;;;;;45.03;19.63;;;;;;;;;;777072;176;942682;-65
2022/01/13 13:33:09;;;;;;;30.90;15.63;;;;;;;;;;787257;176;1021891;-64
2022/01/13 13:35:35;;;;;;;37.13;19.10;;;;;;;;;;785185;176;918678;-65
2022/01/13 13:38:02;;;;;;;32.60;14.97;;;;;;;;;;786241;176;918782;-65
2022/01/13 13:40:27;;;;;;;32.63;17.63;;;;;;;;;;781968;176;919381;-65
2022/01/13 13:42:58;;;;;;;17.73;10.53;;;;;;;;;;779630;177;920452;-65
2022/01/13 13:45:23;;;;;;;22.90;14.30;;;;;;;;;;782502;178;918664;-64
2022/01/13 13:47:53;;;;;;;36.80;18.87;;;;;;;;;;779724;177;919209;-65
2022/01/13 13:50:19;;;;;;;22.10;12.60;;;;;;;;;;780911;176;919423;-65
2022/01/13 13:52:46;;;;;;;45.90;23.17;;;;;;;;;;788020;176;919253;-63
2022/01/13 13:55:11;;;;;;;39.50;19.13;;;;;;;;;;778376;178;918025;-65
2022/01/13 13:57:37;;;;;;;45.13;23.17;;;;;;;;;;781457;177;919463;-65
2022/01/13 14:00:04;;;;;;;53.70;26.80;;;;;;;;;;781937;176;919297;-65
2022/01/13 14:02:33;;;;;;;51.00;24.80;;;;;;;;;;784000;179;922865;-64
2022/01/13 14:04:57;;;;;;;46.65;23.17;;;;;;;;;;779612;177;916703;-65
2022/01/13 14:07:26;;;;;;;44.63;24.37;;;;;;;;;;776436;177;915646;-65
2022/01/13 14:09:57;;;;;;;50.53;22.30;;;;;;;;;;773470;180;921195;-65
2022/01/13 14:12:25;;;;;;;46.63;24.58;;;;;;;;;;761512;181;918999;-65
2022/01/13 14:14:51;;;;;;;36.60;21.60;;;;;;;;;;781092;176;919764;-65
2022/01/13 14:17:16;;;;;;;49.07;26.20;;;;;;;;;;780600;177;919431;-65
2022/01/13 14:19:48;;;;;;;45.73;24.13;;;;;;;;;;783002;177;919437;-65